createdAt,value
2023-01-08T00:00:24.125Z,82.93
2023-01-08T00:01:23.991Z,83.04
2023-01-08T00:02:23.980Z,82.73
2023-01-08T00:03:28.064Z,82.63
2023-01-08T00:04:23.955Z,82.53
2023-01-08T00:05:23.957Z,82.22
2023-01-08T00:06:23.997Z,82.53
2023-01-08T00:07:24.032Z,82.32
2023-01-08T00:08:23.904Z,82.53
2023-01-08T00:09:23.893Z,82.42
2023-01-08T00:10:23.897Z,82.53
2023-01-08T00:11:23.917Z,82.53
2023-01-08T00:12:23.906Z,82.53
2023-01-08T00:13:23.834Z,82.73
2023-01-08T00:14:23.817Z,82.83
2023-01-08T00:15:23.835Z,82.73
2023-01-08T00:16:23.881Z,82.42
2023-01-08T00:17:23.819Z,83.04
2023-01-08T00:18:23.777Z,83.34
2023-01-08T00:19:23.773Z,83.45
2023-01-08T00:20:23.751Z,83.25
2023-01-08T00:21:23.720Z,83.04
2023-01-08T00:22:23.770Z,82.83
2023-01-08T00:23:23.749Z,82.93
2023-01-08T00:24:23.681Z,83.25
2023-01-08T00:25:23.680Z,83.34
2023-01-08T00:26:23.722Z,82.73
2023-01-08T00:27:23.673Z,82.93
2023-01-08T00:28:23.637Z,83.14
2023-01-08T00:29:23.619Z,82.93
2023-01-08T00:30:23.622Z,83.04
2023-01-08T00:31:23.671Z,83.04
2023-01-08T00:32:23.622Z,82.63
2023-01-08T00:33:23.621Z,82.53
2023-01-08T00:34:23.558Z,82.93
2023-01-08T00:35:23.548Z,82.73
2023-01-08T00:36:23.544Z,82.12
2023-01-08T00:37:23.599Z,82.73
2023-01-08T00:38:23.528Z,83.04
2023-01-08T00:39:23.481Z,82.73
2023-01-08T00:40:23.473Z,82.63
2023-01-08T00:41:23.471Z,82.63
2023-01-08T00:42:23.460Z,83.14
2023-01-08T00:43:26.197Z,83.14
2023-01-08T00:44:23.424Z,82.83
2023-01-08T00:45:23.422Z,82.73
2023-01-08T00:46:23.459Z,82.73
2023-01-08T00:47:23.413Z,82.32
2023-01-08T00:48:23.403Z,81.71
2023-01-08T00:49:23.347Z,82.12
2023-01-08T00:50:23.369Z,82.53
2023-01-08T00:51:23.332Z,82.63
2023-01-08T00:52:23.338Z,82.83
2023-01-08T00:53:23.362Z,82.93
2023-01-08T00:54:23.317Z,82.63
2023-01-08T00:55:23.273Z,83.04
2023-01-08T00:56:23.263Z,83.14
2023-01-08T00:57:23.284Z,83.34
2023-01-08T00:58:23.331Z,83.25
2023-01-08T00:59:23.242Z,83.25
2023-01-08T01:00:23.215Z,83.25
2023-01-08T01:01:23.287Z,83.45
2023-01-08T01:02:23.255Z,83.45
2023-01-08T01:03:23.229Z,82.93
2023-01-08T01:04:23.220Z,82.93
2023-01-08T01:05:23.163Z,83.25
2023-01-08T01:06:23.138Z,83.25
2023-01-08T01:07:23.143Z,83.45
2023-01-08T01:08:23.109Z,83.34
2023-01-08T01:09:23.106Z,83.34
2023-01-08T01:10:23.081Z,83.34
2023-01-08T01:11:23.075Z,83.25
2023-01-08T01:12:23.076Z,83.34
2023-01-08T01:13:23.076Z,83.34
2023-01-08T01:14:23.021Z,83.65
2023-01-08T01:15:23.024Z,83.55
2023-01-08T01:16:23.045Z,83.86
2023-01-08T01:17:23.024Z,83.86
2023-01-08T01:18:22.975Z,83.86
2023-01-08T01:19:22.975Z,84.27
2023-01-08T01:20:22.942Z,84.17
2023-01-08T01:21:22.941Z,84.06
2023-01-08T01:22:22.957Z,84.17
2023-01-08T01:23:22.944Z,84.06
2023-01-08T01:24:22.917Z,84.37
2023-01-08T01:25:23.850Z,84.37
2023-01-08T01:26:22.872Z,84.47
2023-01-08T01:27:22.877Z,84.78
2023-01-08T01:28:22.872Z,85.19
2023-01-08T01:29:22.840Z,84.78
2023-01-08T01:30:22.828Z,84.47
2023-01-08T01:31:22.979Z,84.68
2023-01-08T01:32:22.796Z,84.68
2023-01-08T01:33:22.844Z,84.99
2023-01-08T01:34:22.781Z,84.99
2023-01-08T01:35:22.772Z,84.78
2023-01-08T01:36:22.744Z,84.68
2023-01-08T01:37:22.740Z,84.88
2023-01-08T01:38:22.741Z,85.30
2023-01-08T01:39:22.742Z,84.88
2023-01-08T01:40:22.704Z,84.58
2023-01-08T01:41:22.692Z,84.99
2023-01-08T01:42:22.677Z,84.68
2023-01-08T01:43:22.685Z,84.68
2023-01-08T01:44:22.708Z,84.88
2023-01-08T01:45:22.631Z,84.99
2023-01-08T01:46:22.723Z,84.88
2023-01-08T01:47:22.647Z,84.88
2023-01-08T01:48:22.635Z,84.99
2023-01-08T01:49:22.593Z,84.78
2023-01-08T01:50:22.569Z,84.78
2023-01-08T01:51:22.580Z,85.09
2023-01-08T01:52:22.535Z,85.19
2023-01-08T01:53:22.548Z,85.30
2023-01-08T01:54:22.531Z,85.50
2023-01-08T01:55:22.520Z,85.30
2023-01-08T01:56:22.526Z,85.30
2023-01-08T01:57:22.488Z,85.39
2023-01-08T01:58:22.522Z,85.09
2023-01-08T01:59:22.443Z,85.39
2023-01-08T02:00:22.452Z,85.30
2023-01-08T02:01:22.582Z,85.25
2023-01-08T02:02:23.135Z,85.30
2023-01-08T02:03:22.402Z,85.25
2023-01-08T02:04:22.450Z,85.56
2023-01-08T02:05:22.396Z,85.60
2023-01-08T02:06:22.358Z,85.30
2023-01-08T02:07:22.344Z,85.30
2023-01-08T02:08:22.391Z,85.39
2023-01-08T02:09:22.308Z,85.60
2023-01-08T02:10:22.339Z,85.56
2023-01-08T02:11:22.288Z,85.66
2023-01-08T02:12:22.268Z,85.50
2023-01-08T02:13:22.270Z,85.71
2023-01-08T02:14:22.254Z,85.80
2023-01-08T02:15:22.263Z,85.60
2023-01-08T02:16:22.307Z,85.60
2023-01-08T02:17:22.219Z,85.91
2023-01-08T02:18:22.182Z,85.91
2023-01-08T02:19:22.219Z,85.80
2023-01-08T02:20:22.167Z,85.91
2023-01-08T02:21:22.145Z,85.91
2023-01-08T02:22:22.163Z,86.22
2023-01-08T02:23:22.191Z,86.32
2023-01-08T02:24:22.111Z,86.01
2023-01-08T02:25:22.119Z,85.87
2023-01-08T02:26:22.117Z,85.66
2023-01-08T02:27:22.127Z,85.66
2023-01-08T02:28:22.077Z,85.77
2023-01-08T02:29:22.044Z,85.97
2023-01-08T02:30:22.029Z,85.87
2023-01-08T02:31:22.034Z,85.87
2023-01-08T02:32:22.052Z,86.07
2023-01-08T02:33:21.992Z,85.97
2023-01-08T02:34:21.983Z,85.87
2023-01-08T02:35:21.986Z,85.87
2023-01-08T02:36:21.940Z,85.97
2023-01-08T02:37:21.988Z,86.32
2023-01-08T02:38:21.924Z,86.11
2023-01-08T02:39:21.925Z,86.22
2023-01-08T02:40:21.910Z,86.52
2023-01-08T02:41:21.881Z,86.63
2023-01-08T02:42:22.557Z,86.42
2023-01-08T02:43:21.853Z,86.28
2023-01-08T02:44:21.870Z,86.28
2023-01-08T02:45:21.822Z,86.32
2023-01-08T02:46:21.881Z,86.42
2023-01-08T02:47:21.838Z,86.52
2023-01-08T02:48:21.782Z,86.52
2023-01-08T02:49:21.801Z,86.01
2023-01-08T02:50:21.751Z,86.11
2023-01-08T02:51:21.761Z,86.32
2023-01-08T02:52:21.777Z,86.42
2023-01-08T02:53:21.730Z,86.42
2023-01-08T02:54:21.719Z,86.42
2023-01-08T02:55:21.709Z,86.42
2023-01-08T02:56:21.689Z,86.52
2023-01-08T02:57:21.722Z,86.52
2023-01-08T02:58:21.646Z,86.42
2023-01-08T02:59:21.644Z,86.42
2023-01-08T03:00:21.638Z,86.42
2023-01-08T03:01:21.699Z,86.93
2023-01-08T03:02:21.685Z,87.24
2023-01-08T03:03:21.584Z,87.24
2023-01-08T03:04:21.699Z,87.14
2023-01-08T03:05:21.583Z,87.24
2023-01-08T03:06:21.533Z,87.24
2023-01-08T03:07:21.534Z,87.34
2023-01-08T03:08:21.517Z,87.14
2023-01-08T03:09:21.510Z,87.04
2023-01-08T03:10:21.544Z,87.14
2023-01-08T03:11:21.474Z,87.24
2023-01-08T03:12:21.459Z,87.34
2023-01-08T03:13:21.494Z,87.65
2023-01-08T03:14:21.434Z,87.76
2023-01-08T03:15:21.448Z,87.45
2023-01-08T03:16:21.456Z,87.55
2023-01-08T03:17:21.424Z,87.55
2023-01-08T03:18:21.397Z,87.45
2023-01-08T03:19:21.388Z,87.55
2023-01-08T03:20:21.369Z,87.55
2023-01-08T03:21:21.369Z,87.45
2023-01-08T03:22:21.323Z,87.76
2023-01-08T03:23:21.310Z,87.76
2023-01-08T03:24:21.295Z,87.55
2023-01-08T03:25:21.325Z,87.59
2023-01-08T03:26:21.276Z,87.59
2023-01-08T03:27:21.278Z,87.70
2023-01-08T03:28:21.244Z,87.90
2023-01-08T03:29:21.237Z,87.90
2023-01-08T03:30:21.231Z,87.90
2023-01-08T03:31:21.269Z,88.00
2023-01-08T03:32:21.229Z,88.21
2023-01-08T03:33:21.191Z,88.00
2023-01-08T03:34:21.173Z,87.85
2023-01-08T03:35:21.159Z,87.79
2023-01-08T03:36:21.174Z,88.00
2023-01-08T03:37:21.148Z,88.21
2023-01-08T03:38:21.172Z,88.41
2023-01-08T03:39:21.172Z,88.31
2023-01-08T03:40:21.088Z,88.10
2023-01-08T03:41:21.092Z,87.90
2023-01-08T03:42:21.058Z,88.10
2023-01-08T03:43:25.059Z,88.21
2023-01-08T03:44:21.096Z,88.21
2023-01-08T03:45:21.027Z,88.10
2023-01-08T03:46:21.124Z,88.10
2023-01-08T03:47:21.064Z,87.90
2023-01-08T03:48:20.983Z,87.96
2023-01-08T03:49:20.991Z,88.10
2023-01-08T03:50:20.957Z,88.21
2023-01-08T03:51:20.964Z,87.90
2023-01-08T03:52:20.981Z,87.85
2023-01-08T03:53:20.933Z,87.96
2023-01-08T03:54:20.965Z,87.85
2023-01-08T03:55:20.897Z,88.06
2023-01-08T03:56:20.908Z,87.96
2023-01-08T03:57:20.862Z,87.76
2023-01-08T03:58:20.843Z,87.76
2023-01-08T03:59:20.901Z,87.55
2023-01-08T04:00:20.816Z,87.65
2023-01-08T04:01:20.919Z,87.55
2023-01-08T04:02:20.913Z,87.45
2023-01-08T04:03:20.814Z,87.55
2023-01-08T04:04:20.848Z,87.24
2023-01-08T04:05:20.759Z,87.24
2023-01-08T04:06:21.697Z,87.14
2023-01-08T04:07:20.737Z,86.83
2023-01-08T04:08:20.735Z,86.93
2023-01-08T04:09:20.788Z,87.14
2023-01-08T04:10:20.715Z,86.93
2023-01-08T04:11:20.684Z,87.14
2023-01-08T04:12:20.662Z,87.24
2023-01-08T04:13:20.679Z,87.04
2023-01-08T04:14:20.666Z,87.10
2023-01-08T04:15:20.641Z,86.99
2023-01-08T04:16:20.712Z,86.90
2023-01-08T04:17:20.600Z,87.04
2023-01-08T04:18:20.601Z,87.14
2023-01-08T04:19:20.622Z,87.10
2023-01-08T04:20:20.572Z,86.90
2023-01-08T04:21:20.561Z,86.99
2023-01-08T04:22:20.557Z,86.99
2023-01-08T04:23:20.547Z,87.20
2023-01-08T04:24:20.514Z,87.30
2023-01-08T04:25:20.499Z,87.10
2023-01-08T04:26:20.486Z,86.99
2023-01-08T04:27:20.484Z,87.10
2023-01-08T04:28:20.464Z,86.90
2023-01-08T04:29:20.452Z,87.30
2023-01-08T04:30:20.433Z,86.99
2023-01-08T04:31:20.520Z,87.20
2023-01-08T04:32:20.403Z,86.99
2023-01-08T04:33:20.391Z,87.20
2023-01-08T04:34:20.435Z,87.30
2023-01-08T04:35:20.373Z,87.30
2023-01-08T04:36:20.362Z,87.10
2023-01-08T04:37:20.333Z,87.20
2023-01-08T04:38:20.340Z,87.30
2023-01-08T04:39:20.316Z,87.41
2023-01-08T04:40:20.387Z,87.30
2023-01-08T04:41:20.316Z,87.30
2023-01-08T04:42:20.302Z,86.90
2023-01-08T04:43:20.277Z,87.20
2023-01-08T04:44:20.281Z,87.30
2023-01-08T04:45:20.231Z,87.10
2023-01-08T04:46:20.230Z,87.51
2023-01-08T04:47:20.214Z,87.61
2023-01-08T04:48:20.217Z,87.61
2023-01-08T04:49:20.196Z,87.41
2023-01-08T04:50:20.179Z,87.41
2023-01-08T04:51:20.160Z,87.30
2023-01-08T04:52:20.138Z,87.51
2023-01-08T04:53:20.129Z,87.20
2023-01-08T04:54:20.134Z,87.71
2023-01-08T04:55:20.114Z,87.61
2023-01-08T04:56:20.092Z,87.51
2023-01-08T04:57:20.064Z,86.99
2023-01-08T04:58:20.104Z,87.10
2023-01-08T04:59:20.119Z,87.20
2023-01-08T05:00:20.037Z,87.30
2023-01-08T05:01:20.155Z,87.51
2023-01-08T05:02:20.296Z,87.61
2023-01-08T05:03:20.035Z,87.61
2023-01-08T05:04:20.002Z,87.71
2023-01-08T05:05:19.966Z,87.92
2023-01-08T05:06:19.950Z,87.96
2023-01-08T05:07:19.979Z,88.12
2023-01-08T05:08:19.921Z,88.02
2023-01-08T05:09:19.950Z,87.92
2023-01-08T05:10:19.963Z,87.51
2023-01-08T05:11:20.633Z,87.51
2023-01-08T05:12:19.912Z,87.71
2023-01-08T05:13:19.884Z,87.92
2023-01-08T05:14:19.862Z,87.85
2023-01-08T05:15:19.873Z,87.71
2023-01-08T05:16:19.870Z,87.76
2023-01-08T05:17:19.824Z,87.85
2023-01-08T05:18:19.797Z,87.96
2023-01-08T05:19:19.799Z,88.06
2023-01-08T05:20:19.794Z,88.17
2023-01-08T05:21:19.753Z,88.17
2023-01-08T05:22:19.761Z,88.17
2023-01-08T05:23:19.738Z,88.17
2023-01-08T05:24:19.720Z,88.47
2023-01-08T05:25:19.764Z,88.27
2023-01-08T05:26:19.722Z,88.27
2023-01-08T05:27:19.668Z,88.57
2023-01-08T05:28:19.684Z,88.57
2023-01-08T05:29:19.646Z,88.68
2023-01-08T05:30:19.629Z,88.57
2023-01-08T05:31:19.733Z,88.68
2023-01-08T05:32:19.638Z,88.78
2023-01-08T05:33:19.601Z,88.88
2023-01-08T05:34:19.599Z,88.78
2023-01-08T05:35:19.585Z,88.68
2023-01-08T05:36:19.581Z,88.68
2023-01-08T05:37:19.556Z,88.57
2023-01-08T05:38:19.522Z,88.47
2023-01-08T05:39:19.523Z,88.37
2023-01-08T05:40:19.499Z,88.47
2023-01-08T05:41:19.504Z,88.57
2023-01-08T05:42:19.500Z,88.78
2023-01-08T05:43:19.535Z,88.78
2023-01-08T05:44:19.495Z,88.57
2023-01-08T05:45:19.500Z,88.88
2023-01-08T05:46:19.498Z,88.88
2023-01-08T05:47:19.405Z,89.09
2023-01-08T05:48:19.434Z,89.09
2023-01-08T05:49:19.385Z,88.88
2023-01-08T05:50:19.412Z,88.88
2023-01-08T05:51:19.366Z,89.09
2023-01-08T05:52:19.345Z,89.09
2023-01-08T05:53:19.353Z,88.98
2023-01-08T05:54:19.345Z,89.29
2023-01-08T05:55:19.328Z,89.39
2023-01-08T05:56:19.311Z,89.50
2023-01-08T05:57:19.307Z,89.60
2023-01-08T05:58:19.384Z,89.39
2023-01-08T05:59:19.297Z,89.39
2023-01-08T06:00:19.361Z,89.50
2023-01-08T06:01:19.279Z,89.60
2023-01-08T06:02:19.243Z,89.70
2023-01-08T06:03:19.245Z,89.81
2023-01-08T06:04:19.257Z,89.70
2023-01-08T06:05:19.181Z,89.60
2023-01-08T06:06:19.172Z,89.50
2023-01-08T06:07:19.147Z,89.29
2023-01-08T06:08:19.144Z,89.39
2023-01-08T06:09:19.136Z,89.60
2023-01-08T06:10:19.112Z,89.60
2023-01-08T06:11:19.105Z,89.70
2023-01-08T06:12:19.108Z,89.70
2023-01-08T06:13:19.096Z,89.70
2023-01-08T06:14:19.099Z,89.81
2023-01-08T06:15:19.046Z,89.81
2023-01-08T06:16:19.139Z,89.81
2023-01-08T06:17:19.010Z,89.70
2023-01-08T06:18:19.103Z,89.70
2023-01-08T06:19:19.035Z,89.70
2023-01-08T06:20:19.027Z,89.90
2023-01-08T06:21:19.003Z,89.90
2023-01-08T06:22:18.984Z,89.81
2023-01-08T06:23:18.953Z,89.90
2023-01-08T06:24:18.951Z,89.90
2023-01-08T06:25:19.949Z,90.01
2023-01-08T06:26:18.904Z,89.90
2023-01-08T06:27:18.895Z,89.90
2023-01-08T06:28:18.888Z,89.70
2023-01-08T06:29:18.896Z,89.81
2023-01-08T06:30:18.873Z,89.90
2023-01-08T06:31:18.904Z,89.90
2023-01-08T06:32:18.836Z,89.81
2023-01-08T06:33:21.065Z,90.01
2023-01-08T06:34:18.866Z,90.11
2023-01-08T06:35:18.811Z,90.01
2023-01-08T06:36:18.791Z,90.01
2023-01-08T06:37:18.766Z,90.01
2023-01-08T06:38:18.742Z,89.90
2023-01-08T06:39:18.737Z,89.81
2023-01-08T06:40:18.720Z,89.81
2023-01-08T06:41:18.718Z,89.81
2023-01-08T06:42:18.715Z,89.90
2023-01-08T06:43:18.711Z,89.90
2023-01-08T06:44:18.679Z,89.81
2023-01-08T06:45:18.661Z,89.81
2023-01-08T06:46:18.714Z,89.81
2023-01-08T06:47:18.656Z,90.01
2023-01-08T06:48:18.652Z,90.01
2023-01-08T06:49:18.609Z,89.90
2023-01-08T06:50:18.603Z,89.70
2023-01-08T06:51:18.573Z,89.81
2023-01-08T06:52:19.538Z,89.81
2023-01-08T06:53:18.560Z,89.90
2023-01-08T06:54:18.551Z,89.81
2023-01-08T06:55:18.535Z,89.70
2023-01-08T06:56:18.522Z,89.81
2023-01-08T06:57:18.493Z,89.70
2023-01-08T06:58:18.507Z,89.70
2023-01-08T06:59:18.476Z,89.70
2023-01-08T07:00:18.536Z,89.90
2023-01-08T07:01:18.511Z,89.90
2023-01-08T07:02:18.712Z,89.90
2023-01-08T07:03:18.461Z,89.81
2023-01-08T07:04:18.407Z,89.81
2023-01-08T07:05:18.401Z,89.70
2023-01-08T07:06:18.403Z,89.81
2023-01-08T07:07:18.379Z,90.01
2023-01-08T07:08:18.395Z,90.11
2023-01-08T07:09:18.371Z,90.11
2023-01-08T07:10:20.021Z,90.11
2023-01-08T07:11:18.332Z,90.32
2023-01-08T07:12:18.342Z,90.22
2023-01-08T07:13:18.289Z,90.11
2023-01-08T07:14:18.291Z,90.11
2023-01-08T07:15:18.275Z,90.11
2023-01-08T07:16:18.324Z,90.22
2023-01-08T07:17:18.241Z,90.42
2023-01-08T07:18:18.248Z,90.52
2023-01-08T07:19:18.287Z,90.42
2023-01-08T07:20:18.219Z,90.52
2023-01-08T07:21:18.250Z,90.77
2023-01-08T07:22:18.187Z,90.67
2023-01-08T07:23:18.169Z,90.52
2023-01-08T07:24:18.155Z,90.56
2023-01-08T07:25:18.127Z,90.62
2023-01-08T07:26:18.159Z,90.77
2023-01-08T07:27:18.141Z,90.77
2023-01-08T07:28:18.106Z,90.87
2023-01-08T07:29:18.113Z,90.93
2023-01-08T07:30:29.301Z,91.08
2023-01-08T07:31:19.125Z,90.97
2023-01-08T07:32:18.066Z,90.73
2023-01-08T07:33:18.119Z,90.73
2023-01-08T07:34:18.037Z,90.62
2023-01-08T07:35:18.033Z,90.62
2023-01-08T07:36:18.000Z,90.73
2023-01-08T07:37:17.991Z,90.52
2023-01-08T07:38:17.960Z,90.52
2023-01-08T07:39:17.998Z,90.62
2023-01-08T07:40:17.948Z,90.73
2023-01-08T07:41:17.930Z,90.83
2023-01-08T07:42:17.909Z,90.62
2023-01-08T07:43:17.896Z,90.52
2023-01-08T07:44:17.897Z,90.22
2023-01-08T07:45:17.868Z,90.52
2023-01-08T07:46:17.881Z,90.42
2023-01-08T07:47:17.886Z,90.32
2023-01-08T07:48:17.833Z,90.11
2023-01-08T07:49:17.814Z,90.32
2023-01-08T07:50:17.820Z,90.52
2023-01-08T07:51:17.836Z,90.62
2023-01-08T07:52:17.773Z,90.62
2023-01-08T07:53:17.830Z,90.62
2023-01-08T07:54:17.774Z,90.52
2023-01-08T07:55:17.751Z,90.62
2023-01-08T07:56:17.739Z,90.62
2023-01-08T07:57:17.713Z,90.62
2023-01-08T07:58:17.692Z,90.83
2023-01-08T07:59:17.779Z,90.93
2023-01-08T08:00:17.673Z,90.83
2023-01-08T08:01:17.684Z,90.93
2023-01-08T08:02:17.747Z,90.83
2023-01-08T08:03:17.701Z,90.93
2023-01-08T08:04:17.645Z,90.93
2023-01-08T08:05:17.602Z,90.83
2023-01-08T08:06:17.607Z,91.03
2023-01-08T08:07:17.586Z,91.03
2023-01-08T08:08:17.602Z,90.93
2023-01-08T08:09:17.608Z,90.99
2023-01-08T08:10:17.549Z,90.99
2023-01-08T08:11:17.531Z,91.09
2023-01-08T08:12:17.505Z,91.35
2023-01-08T08:13:17.495Z,91.44
2023-01-08T08:14:17.525Z,91.55
2023-01-08T08:15:17.466Z,91.65
2023-01-08T08:16:17.493Z,91.96
2023-01-08T08:17:17.444Z,92.16
2023-01-08T08:18:17.453Z,92.27
2023-01-08T08:19:17.427Z,92.47
2023-01-08T08:20:17.420Z,92.88
2023-01-08T08:21:17.426Z,93.19
2023-01-08T08:22:17.374Z,93.29
2023-01-08T08:23:17.370Z,93.39
2023-01-08T08:24:17.367Z,93.60
2023-01-08T08:25:17.357Z,93.70
2023-01-08T08:26:17.329Z,93.80
2023-01-08T08:27:17.374Z,94.11
2023-01-08T08:28:17.306Z,94.32
2023-01-08T08:29:17.311Z,94.32
2023-01-08T08:30:17.272Z,94.32
2023-01-08T08:31:17.340Z,94.52
2023-01-08T08:32:17.246Z,94.52
2023-01-08T08:33:17.231Z,94.62
2023-01-08T08:34:17.305Z,94.73
2023-01-08T08:35:17.237Z,94.83
2023-01-08T08:36:17.196Z,94.83
2023-01-08T08:37:17.245Z,94.73
2023-01-08T08:38:17.181Z,94.62
2023-01-08T08:39:17.195Z,94.62
2023-01-08T08:40:17.163Z,94.52
2023-01-08T08:41:17.147Z,94.52
2023-01-08T08:42:17.127Z,94.52
2023-01-08T08:43:17.106Z,94.73
2023-01-08T08:44:17.139Z,94.62
2023-01-08T08:45:17.082Z,94.62
2023-01-08T08:46:17.165Z,94.52
2023-01-08T08:47:17.057Z,94.32
2023-01-08T08:48:17.042Z,94.21
2023-01-08T08:49:17.042Z,94.21
2023-01-08T08:50:17.013Z,94.21
2023-01-08T08:51:17.010Z,94.11
2023-01-08T08:52:16.997Z,94.21
2023-01-08T08:53:17.022Z,94.01
2023-01-08T08:54:16.987Z,93.90
2023-01-08T08:55:16.945Z,94.01
2023-01-08T08:56:16.993Z,94.21
2023-01-08T08:57:16.935Z,94.42
2023-01-08T08:58:18.103Z,94.62
2023-01-08T08:59:17.070Z,94.83
2023-01-08T09:00:16.922Z,95.14
2023-01-08T09:01:16.971Z,95.44
2023-01-08T09:02:17.106Z,95.75
2023-01-08T09:03:16.916Z,96.10
2023-01-08T09:04:16.861Z,96.26
2023-01-08T09:05:16.860Z,96.62
2023-01-08T09:06:16.820Z,96.72
2023-01-08T09:07:16.807Z,96.92
2023-01-08T09:08:16.815Z,97.13
2023-01-08T09:09:16.796Z,97.44
2023-01-08T09:10:16.772Z,97.54
2023-01-08T09:11:16.748Z,97.64
2023-01-08T09:12:16.731Z,97.85
2023-01-08T09:13:16.752Z,97.95
2023-01-08T09:14:16.711Z,98.05
2023-01-08T09:15:16.689Z,98.16
2023-01-08T09:16:16.715Z,98.16
2023-01-08T09:17:16.682Z,98.05
2023-01-08T09:18:16.668Z,98.05
2023-01-08T09:19:16.642Z,97.95
2023-01-08T09:20:16.669Z,97.95
2023-01-08T09:21:16.610Z,97.95
2023-01-08T09:22:16.609Z,97.95
2023-01-08T09:23:16.593Z,97.95
2023-01-08T09:24:16.825Z,97.74
2023-01-08T09:25:17.603Z,97.85
2023-01-08T09:26:16.609Z,97.74
2023-01-08T09:27:16.547Z,97.74
2023-01-08T09:28:16.534Z,97.74
2023-01-08T09:29:16.515Z,97.85
2023-01-08T09:30:16.563Z,97.74
2023-01-08T09:31:16.516Z,97.74
2023-01-08T09:32:16.468Z,97.64
2023-01-08T09:33:16.474Z,97.64
2023-01-08T09:34:16.451Z,97.64
2023-01-08T09:35:16.488Z,97.64
2023-01-08T09:36:16.440Z,97.54
2023-01-08T09:37:16.424Z,97.44
2023-01-08T09:38:16.502Z,97.19
2023-01-08T09:39:16.402Z,97.08
2023-01-08T09:40:16.406Z,96.78
2023-01-08T09:41:16.353Z,96.78
2023-01-08T09:42:16.358Z,96.67
2023-01-08T09:43:16.365Z,96.67
2023-01-08T09:44:16.372Z,96.47
2023-01-08T09:45:16.310Z,96.47
2023-01-08T09:46:16.348Z,96.47
2023-01-08T09:47:16.287Z,96.47
2023-01-08T09:48:16.274Z,96.47
2023-01-08T09:49:16.256Z,96.47
2023-01-08T09:50:16.281Z,96.26
2023-01-08T09:51:16.243Z,96.26
2023-01-08T09:52:16.346Z,96.37
2023-01-08T09:53:16.248Z,96.26
2023-01-08T09:54:16.185Z,96.12
2023-01-08T09:55:16.185Z,95.86
2023-01-08T09:56:16.167Z,95.81
2023-01-08T09:57:16.159Z,95.81
2023-01-08T09:58:16.154Z,95.81
2023-01-08T09:59:16.139Z,95.81
2023-01-08T10:00:16.148Z,95.81
2023-01-08T10:01:16.318Z,95.70
2023-01-08T10:02:16.150Z,95.81
2023-01-08T10:03:16.073Z,95.61
2023-01-08T10:04:16.054Z,95.70
2023-01-08T10:05:16.119Z,95.40
2023-01-08T10:06:16.048Z,95.29
2023-01-08T10:07:16.014Z,95.40
2023-01-08T10:08:16.034Z,95.29
2023-01-08T10:09:15.997Z,95.29
2023-01-08T10:10:15.994Z,95.09
2023-01-08T10:11:15.973Z,95.09
2023-01-08T10:12:15.942Z,94.99
2023-01-08T10:13:15.925Z,94.99
2023-01-08T10:14:15.930Z,94.99
2023-01-08T10:15:15.951Z,94.89
2023-01-08T10:16:15.945Z,94.58
2023-01-08T10:17:15.875Z,94.68
2023-01-08T10:18:15.856Z,94.64
2023-01-08T10:19:15.871Z,94.54
2023-01-08T10:20:15.863Z,94.33
2023-01-08T10:21:15.820Z,94.48
2023-01-08T10:22:15.838Z,94.54
2023-01-08T10:23:15.791Z,94.43
2023-01-08T10:24:15.786Z,94.23
2023-01-08T10:25:15.795Z,94.58
2023-01-08T10:26:15.743Z,94.54
2023-01-08T10:27:15.735Z,94.48
2023-01-08T10:28:15.741Z,94.54
2023-01-08T10:29:15.728Z,94.48
2023-01-08T10:30:15.776Z,94.27
2023-01-08T10:31:15.725Z,94.43
2023-01-08T10:32:15.662Z,94.54
2023-01-08T10:33:15.665Z,94.54
2023-01-08T10:34:15.645Z,94.43
2023-01-08T10:35:15.661Z,94.23
2023-01-08T10:36:15.619Z,94.23
2023-01-08T10:37:15.610Z,94.12
2023-01-08T10:38:15.641Z,94.23
2023-01-08T10:39:15.591Z,93.82
2023-01-08T10:40:15.582Z,93.82
2023-01-08T10:41:15.561Z,93.92
2023-01-08T10:42:15.618Z,93.71
2023-01-08T10:43:15.535Z,93.82
2023-01-08T10:44:15.513Z,93.92
2023-01-08T10:45:15.491Z,94.02
2023-01-08T10:46:15.525Z,93.92
2023-01-08T10:47:15.507Z,94.02
2023-01-08T10:48:15.460Z,93.92
2023-01-08T10:49:15.441Z,93.82
2023-01-08T10:50:15.424Z,93.62
2023-01-08T10:51:15.442Z,93.71
2023-01-08T10:52:15.419Z,93.62
2023-01-08T10:53:15.383Z,93.41
2023-01-08T10:54:15.373Z,93.51
2023-01-08T10:55:15.356Z,93.41
2023-01-08T10:56:15.358Z,93.35
2023-01-08T10:57:15.353Z,93.76
2023-01-08T10:58:15.312Z,93.96
2023-01-08T10:59:15.313Z,93.96
2023-01-08T11:00:15.282Z,94.07
2023-01-08T11:01:15.394Z,93.96
2023-01-08T11:02:15.261Z,93.86
2023-01-08T11:03:15.246Z,93.86
2023-01-08T11:04:15.225Z,93.92
2023-01-08T11:05:15.237Z,93.71
2023-01-08T11:06:15.273Z,93.66
2023-01-08T11:07:15.195Z,93.86
2023-01-08T11:08:15.183Z,93.96
2023-01-08T11:09:15.210Z,94.02
2023-01-08T11:10:15.190Z,94.12
2023-01-08T11:11:15.162Z,94.23
2023-01-08T11:12:15.127Z,93.96
2023-01-08T11:13:15.134Z,94.27
2023-01-08T11:14:15.113Z,94.37
2023-01-08T11:15:15.095Z,94.48
2023-01-08T11:16:15.103Z,94.54
2023-01-08T11:17:15.069Z,94.54
2023-01-08T11:18:15.052Z,94.54
2023-01-08T11:19:15.043Z,94.54
2023-01-08T11:20:15.050Z,94.33
2023-01-08T11:21:15.042Z,94.43
2023-01-08T11:22:14.987Z,94.43
2023-01-08T11:23:14.992Z,94.43
2023-01-08T11:24:15.005Z,94.43
2023-01-08T11:25:14.958Z,94.43
2023-01-08T11:26:14.970Z,94.43
2023-01-08T11:27:14.923Z,94.23
2023-01-08T11:28:14.926Z,94.39
2023-01-08T11:29:14.928Z,94.29
2023-01-08T11:30:14.924Z,94.18
2023-01-08T11:31:14.998Z,93.98
2023-01-08T11:32:14.871Z,93.98
2023-01-08T11:33:14.852Z,93.98
2023-01-08T11:34:14.864Z,93.88
2023-01-08T11:35:14.834Z,93.77
2023-01-08T11:36:15.081Z,93.93
2023-01-08T11:37:14.818Z,93.43
2023-01-08T11:38:14.803Z,93.32
2023-01-08T11:39:14.762Z,93.18
2023-01-08T11:40:14.781Z,92.83
2023-01-08T11:41:14.755Z,92.42
2023-01-08T11:42:14.751Z,91.80
2023-01-08T11:43:14.781Z,91.05
2023-01-08T11:44:14.698Z,90.88
2023-01-08T11:45:14.719Z,90.78
2023-01-08T11:46:14.709Z,90.62
2023-01-08T11:47:14.753Z,90.88
2023-01-08T11:48:14.741Z,90.02
2023-01-08T11:49:14.694Z,89.51
2023-01-08T11:50:14.631Z,88.59
2023-01-08T11:51:14.646Z,88.39
2023-01-08T11:52:14.591Z,87.23
2023-01-08T11:53:14.582Z,86.82
2023-01-08T11:54:14.576Z,85.59
2023-01-08T11:55:14.581Z,86.06
2023-01-08T11:56:14.563Z,85.45
2023-01-08T11:57:14.543Z,85.75
2023-01-08T11:58:14.510Z,84.63
2023-01-08T11:59:14.504Z,84.12
2023-01-08T12:00:14.577Z,84.42
2023-01-08T12:01:14.541Z,84.53
2023-01-08T12:02:14.534Z,84.39
2023-01-08T12:03:14.537Z,83.94
2023-01-08T12:04:14.442Z,83.02
2023-01-08T12:05:14.439Z,83.23
2023-01-08T12:06:14.666Z,82.31
2023-01-08T12:07:14.407Z,82.71
2023-01-08T12:08:14.402Z,82.27
2023-01-08T12:09:14.390Z,81.15
2023-01-08T12:10:14.361Z,80.84
2023-01-08T12:11:14.539Z,79.58
2023-01-08T12:12:15.157Z,79.35
2023-01-08T12:13:14.331Z,80.37
2023-01-08T12:14:14.301Z,80.91
2023-01-08T12:15:14.299Z,81.49
2023-01-08T12:16:14.328Z,81.15
2023-01-08T12:17:14.349Z,79.55
2023-01-08T12:18:14.262Z,80.78
2023-01-08T12:19:14.254Z,79.52
2023-01-08T12:20:14.231Z,79.17
2023-01-08T12:21:14.265Z,79.07
2023-01-08T12:22:14.267Z,78.73
2023-01-08T12:23:14.190Z,76.45
2023-01-08T12:24:14.170Z,76.01
2023-01-08T12:25:14.180Z,74.79
2023-01-08T12:26:14.154Z,74.69
2023-01-08T12:27:14.159Z,74.58
2023-01-08T12:28:14.134Z,73.60
2023-01-08T12:29:14.116Z,75.37
2023-01-08T12:30:14.110Z,74.55
2023-01-08T12:31:14.114Z,76.42
2023-01-08T12:32:14.105Z,75.98
2023-01-08T12:33:14.050Z,75.23
2023-01-08T12:34:14.034Z,74.62
2023-01-08T12:35:14.044Z,74.18
2023-01-08T12:36:14.019Z,73.67
2023-01-08T12:37:14.024Z,73.43
2023-01-08T12:38:13.997Z,72.34
2023-01-08T12:39:13.995Z,72.82
2023-01-08T12:40:13.977Z,72.25
2023-01-08T12:41:13.953Z,73.71
2023-01-08T12:42:14.005Z,73.67
2023-01-08T12:43:13.922Z,72.65
2023-01-08T12:44:13.910Z,72.69
2023-01-08T12:45:13.912Z,73.60
2023-01-08T12:46:13.987Z,74.28
2023-01-08T12:47:13.945Z,72.34
2023-01-08T12:48:13.864Z,72.92
2023-01-08T12:49:13.876Z,72.41
2023-01-08T12:50:13.828Z,73.16
2023-01-08T12:51:13.825Z,73.26
2023-01-08T12:52:13.875Z,72.75